Timeline UpdatesTrip UpdatesNews PostsPvt PostsTravel TipsAdmin PostsConv PostsFollowed PostsChat RequestsBlog PostsPNR Posts

Disclaimer
Search
 
 
Fri Aug 29, 2014 13:31:52 ISTHomeTrainsΣChainsAtlasPNRForumGalleryNewsFAQTripsMembersLoginFeedback
No Recent News for this Train
Other Trains in the News **new
Latest...
running with se1
Wed Aug 27, 2014 (09:42AM)
⇐ Return Journey: Train# 18238

18237/Chhattisgarh Express

May 08 2014 (6:20PM)
Change Departure Station:
Change Arrival Station:
Post a Train Travel TipPost a Train Travel Tip **new
Post a Comment/Question/Picture/VideoPost a Comment/Question/Picture/Video
Inaugural Run
Sat Jan 01, 1977
Pantry/Catering
✓ Pantry Car Avbl
✓ Catering Avbl
Food is of Average Quality
Loco/Rake Reversals
NGP/Nagpur Junction (8);
RSA - Rake Sharing
58209
Rake/Coach Composition
LOCO-SLR-GS-S1-S2-S3-S4-S5-S6-S7-S8-S9-S10-PC-S11-S12-B3-B2-B1-A1-HA1-GS-SLR-SP1
Loco
BSP - NGP --- ET WAP4 NGP - NZM --- AJNI...
Read more...
WAP7 NZM - ASR ---- TKD WDP4 Author: Mahesh Gupta Entry# 295353
News    PNR    Forum    Time-Table    Availability    Fare Chart    Map    Arr/Dep History    Trips    Gallery    ΣChains    X/O    Timeline    
Travel Time: 41h 55m    83 halts    Distance: 2011 km    Avg Speed: 47 km/hr
Type: Mail/Express
Zone: SECR/South East Central
Departs @ 14:15
Platform# 3
SMTWTFS
Bilaspur Junction/BSP 
Arrives @ 08:10 +2 nights
Platform# 3
SMTWTFS
Amritsar Junction/ASR 

83 halts. 279 intermediate Stations between Bilaspur Junction and Amritsar Junction

Show ALL intermediate Stations  Show Old Time-Table

#CodeStation NameX/OArrivesAvgDepartsAvgHaltPFDay#KmSpeedElevZoneAddress
1BSP»Bilaspur Junction (8)»  -14:15-310.049271mSECRBilaspur, Chhattisgarh
2BYLBelha  14:34-14:35-1m--115.577269mSECRCollege Road, Chhattisgarh
3BYTBhatapara (4)X  14:59-15:00-1m--146.271270mSECRBanjari Road, Chhattisgarh
4HNHathbandhX  15:13-15:14-1m--161.564283mSECRRaipur, Chhattisgarh
5TLDTilda (3)X  15:24-15:25-1m--172.251291mSECRBanjari Rd, Chhattisgarh
6RRaipur Junction (6)XO  16:10-16:20-10m--1110.480297mSECRRaipur, Chhattisgarh
7BPHBBhilai Power House (3)  16:41-16:42-1m--1138.419312mSECRBhilai, Chhattisgarh
8DURGDurg Junction (6)X  17:10-17:15-5m11147.487299mSECRPh: 91-788-2322059, Chhattisgarh
9RJNRaj Nandgaon (3)X  17:36-17:38-2m--1177.882313mSECRRajnandgaon, Chhattisgarh
10DGGDongargarh (2)  18:01-18:02-1m--1209.465353mSECRDongargarh, Chhattisgarh
11SKSSalekasa (2)  18:35-18:36-1m--1245.174312mSECRRajnandgaon, Chhattisgarh
12AGNAmgaon (2)  18:48-18:49-1m--1259.847317mSECRGondia, Maharashtra
13GGondia Junction (7)  19:18-19:23-5m--1282.688316mSECRGondia 441601, Maharashtra
14TROTirora (3)  19:43-19:44-1m--1311.968282mSECRDist Gondiya, Maharashtra
15TMRTumsar Road (3)X  20:02-20:03-1m--1332.367267mSECRBhandara, Maharashtra
16BRDBhandara Road (2)  20:19-20:20-1m--1350.285266mSECRState Highway 252, Maharashtra
17KPKamptee (3)  20:54-20:55-1m--1398.219290mSECRMH 441001, Maharashtra
18NGPNagpur Junction (8)X21:40-22:05-25m31412.583314mCRNagpur 440001, Maharashtra
19KATLKatol (2)X  22:49-22:50-1m--1473.379 CRKatol, Maharashtra
20NRKRNarkher Junction (4)  23:09-23:10-1m--1498.558411mCRNarkher, Maharashtra
21PARPandhurna (2)  23:29-23:30-1m--1516.848481mCRDistt: Chhindwara, Madhya Pradesh
22MTYMultai (2)X  00:21-00:22-1m--2557.660762mCRMultai, Madhya Pradesh
23AMLAAmla Junction (5)XO  00:45-01:20-35m--2580.553733mCRAmla Distt. Betul, Madhya Pradesh
24BZUBetul (3)  01:46-01:47-1m--2603.450644mCRBetul, Madhya Pradesh
25GDYAGhoradongri (3)XO  02:30-02:31-1m--2639.339 CRBetul, Madhya Pradesh
26ETItarsi Junction (7)  04:20-04:25-5m--2709.757329mWCRItarsi 461111, Madhya Pradesh
27HBDHoshangabad (2)X  04:44-04:45-1m--2727.849308mWCRHoshangabad, Madhya Pradesh
28ODGObaidulla Ganj  05:31-05:32-1m22765.554 WCRObaidullaganj Raisen Dist., Madhya Pradesh
29HBJBhopal HabibGanj (5)XO  06:05-06:06-1m42795.116496mWCRHabibGanj, Madhya Pradesh
30BPLBhopal Junction (6)X  06:30-06:35-5m22801.471497mWCRBhopal, Madhya Pradesh
31BHSVidisha (3)X  07:20-07:22-2m12854.984 WCRVidisha, Madhya Pradesh
32BAQGanj Basoda (4)X  07:50-07:51-1m12894.245 WCRVidisha, Madhya Pradesh
33MABAMandi Bamora (3)XO  08:29-08:30-1m12922.723413mWCRState Highway 14, Madhya Pradesh
34BINABina Junction (4)X  09:15-09:20-5m22940.056414mWCRJn Pt - KATNI/GUNA/ BPL/JHS, Madhya Pradesh
35DUADhaura (3)XO  09:57-09:58-1m--2974.650407mNCRDhaura Tanda, Madhya Pradesh
36JLNJakhalaun (3)  10:12-10:14-2m--2986.1144394mNCRLalitpur(05176-272220), Uttar Pradesh
37LARLalitpur (3)  10:21-10:22-1m321002.986373mNCRLalitpur, Uttar Pradesh
38TBTTalbahat (4)O  10:50-10:52-2m--21042.851314mNCRKhaniyadhana Station Rd, Madhya Pradesh
39BZYBasai (3)X  11:07-11:08-1m221055.652287mNCR07522289600(Gate ManMob. - 9452701575), Madhya Pradesh
40BABBabina (3)  11:22-11:23-1m221067.733285mNCRBabina, Uttar Pradesh
41JHSJhansi Junction (7)X  12:10-12:18-8m421093.265259mNCRJhansi, Uttar Pradesh
42DAADatia (2)X  12:41-12:42-1m121118.253264mNCRDatia, Madhya Pradesh
43SORSonagir (2)X  12:55-12:56-1m--21129.866211mNCRDatia, Madhya Pradesh
44DBADabra (3)X  13:13-13:14-1m121148.669 NCRDabra(District-Gwalior), Madhya Pradesh
45GWLGwalior Junction (4)X  13:51-13:56-5m221190.972214mNCRGwalior, Madhya Pradesh
46BAOBanmor  14:12-14:13-1m--21210.255189mNCRGwalior, Madhya Pradesh
47MRAMorena (3)  14:34-14:35-1m221229.473176mNCRMorena, Madhya Pradesh
48DHODholpur Junction (3)X  14:57-14:58-1m121256.351177mNCRDholpur, Rajasthan
49AGCAgra Cantt. (6)XO  16:00-16:08-8m221308.930174mNCRAgra, Uttar Pradesh
50RKMRaja Ki Mandi (4)  16:16-16:17-1m121312.962170mNCRAgra, Uttar Pradesh
51MTJMathura Junction (10)X  17:05-17:10-5m221362.681179mNCRMathura, Uttar Pradesh
52CHJChata (4)X  17:33-17:34-1m221393.851 NCRChhata, Uttar Pradesh
53KSVKosi Kalan (3)X  17:46-17:47-1m121404.049189mNCRKosi Kalan, Uttar Pradesh
54PWLPalwal (8)  18:39-18:40-1m--21446.567200mNRPalwal, Haryana
55BVHBallabgarh (5)  18:59-19:00-1m--21467.740203mNRFaridabad, Haryana
56FDBFaridabad (4)X  19:12-19:13-1m221475.839206mNRold Faridabad, Haryana
57NZMDelhi Hazrat Nizamuddin (7)O  19:45-20:15-30m121496.525209mNRNew Delhi 110013, Delhi NCT
58SBBSahibabad Junction (5)XO  20:53-20:54-1m--21512.629209mNRGhaziabad, Uttar Pradesh
59GZBGhaziabad Junction (6)  21:08-21:10-2m121519.362217mNRGhaziabad, Uttar Pradesh
60MUDMuradnagar (2)X  21:27-21:28-1m--21536.955220mNRGhaziabad, Uttar Pradesh
61MDNRModinagar (2)X  21:39-21:40-1m--21547.058221mNRGhaziabad, Uttar Pradesh
62MTCMeerut City Junction (6)  22:00-22:05-5m321566.543229mNRMeerut, Uttar Pradesh
63MUTMeerut Cantt. (2)  22:11-22:12-1m--21570.867230mNRMeerut, Uttar Pradesh
64KATKhatauli (2)  22:38-22:39-1m221599.967239mNRKhatauli, Uttar Pradesh
65MOZMuzaffarnagar (3)  22:59-23:00-1m221622.169247mNRMuzaffarNagar, Uttar Pradesh
66DBDDeoband (2)  23:21-23:22-1m221646.135258mNRSaharanpur, Uttar Pradesh
67SRESaharanpur Junction (6)X  00:20-00:30-10m431680.362276mNRSaharanpur, Uttar Pradesh
68JUDYamunanagar-Jagadhri (3)X  00:59-01:00-1m331710.438275mNRYamunanagar, Haryana
69JUDWJagadhri Workshop (2)X  01:08-01:09-1m231715.471280mNRRailway Workshop Road, Haryana
70RAABarara (2)  01:27-01:28-1m231736.740279mNRBarara, Haryana
71UMBAmbala Cantt. Junction (7)X  02:05-02:15-10m231761.532278mNRAmbala 133001, Haryana
72UBCAmbala City (3)X  02:29-02:30-1m331769.172273mNRNH-1, Haryana
73RPJRajpura Junction (3)X  02:47-02:48-1m131789.539272mNRNH-1, Punjab
74SIRSirhind Junction (3)XO  03:26-03:28-2m131814.459271mNRSirhind, Punjab
75GVGMandi Gobindgarh (2)  03:38-03:39-1m131824.241268mNRMandi Gobindgarh, Punjab
76KNNKhanna (3)XO  03:51-03:52-1m131832.368269mNRNH 1, Punjab
77LDHLudhiana Junction (7)X  04:30-04:40-10m231875.133246mNRLudhiana 141001, Punjab
78PHRPhillaur Junction (3)O  05:04-05:05-1m231888.271246mNRPhillaur, Punjab
79PGWPhagwara Junction (3)O  05:24-05:25-1m231910.854245mNRPhagwara, Punjab
80JRCJalandhar Cantt. Junction (3)  05:43-05:45-2m131927.129239mNRNear Rama Mandi, Punjab
81JUCJalandhar City Junction (5)X  05:55-06:00-5m131931.946239mNRJalandhar 144001, Punjab
82KREKartarpur (2)X  06:19-06:20-1m231946.548236mNRKartarpur, Punjab
83BEASBeas Junction (2)  06:47-06:48-1m131968.075238mNRBeas, Punjab
84JNLJandiala (2)X  07:07-07:08-1m131991.819238mNRJandiala, Punjab
85ASR•Amritsar Junction (5)•  08:10--332011.0-233mNRAmritsar 143002, Punjab
Scroll to Top
Scroll to Bottom